Summary for RAINWISE1

Rainwise Factory, Bar Harbor, ME 04609
Join the PWSweather.com Network
View data in metric units
Latest Conditions
Updated 11:30:00 AM EST Sunday, Dec 21, 2014
Data Currently Today's Max Today's Min Today's Average
Temperature 32.8°F0.4°C 32.8°F0.4°C 26.8°F-2.9°C 28.2°F-2.1°C
Dew Point 28.1°F-2.2°C 28.2°F-2.1°C 23.8°F-4.6°C 25.4°F-3.7°C
Winds 3.0 mph NE4.8 kmh NE 4.6 mph N7.4 kmh N 0.2 mph0.3 kmh 2.7 mph4.3 kmh
Wind Gusts 6.0 mph9.7 kmh 8.1 mph13.0 kmh 1.6 mph2.6 kmh 5.1 mph8.2 kmh
Humidity 87% 94% 87% 92%
Pressure 30.32 in1026.8 mb 30.34 in1027.4 mb 30.29 in1025.7 mb 30.31 in1026.4 mb
Precipitation 0.00 in0.0 mm - - 0.00 in0.0 mm
Trends
 
Station Profile
Rainwise FactoryBar Harbor, ME 04609

Lat: 44.39, Lon: -68.208
Elevation: 29
Station Type: Rainwise MK-III

Detailed Summary for Sun, Dec 21, 2014
Hour (EST) Temperature Dew Point Humidity Winds Wind Gusts Pressure Precip Precip Rate Daily Precip Total
11:30 AM 32.8°F0.4°C 28.1°F-2.2°C 87% 3.0 mph NE4.8 kmh NE 6.0 mph9.7 kmh 30.32 in1026.8 mb 0.00 in0.0 mm 0.00 in/hr0.0 mm/hr 0.00 in0.0 mm
11:25 AM 32.8°F0.4°C 28.1°F-2.2°C 87% 3.1 mph NE5.0 kmh NE 5.7 mph9.2 kmh 30.32 in1026.8 mb 0.00 in0.0 mm 0.00 in/hr0.0 mm/hr 0.00 in0.0 mm
11:20 AM 32.7°F0.4°C 28.0°F-2.2°C 87% 2.7 mph N4.3 kmh N 6.0 mph9.7 kmh 30.32 in1026.8 mb 0.00 in0.0 mm 0.00 in/hr0.0 mm/hr 0.00 in0.0 mm
11:15 AM 32.7°F0.4°C 28.0°F-2.2°C 87% 1.6 mph NE2.6 kmh NE 3.7 mph6.0 kmh 30.32 in1026.8 mb 0.00 in0.0 mm 0.00 in/hr0.0 mm/hr 0.00 in0.0 mm
11:10 AM 32.6°F0.3°C 27.9°F-2.3°C 87% 3.7 mph NNE6.0 kmh NNE 7.0 mph11.3 kmh 30.32 in1026.8 mb 0.00 in0.0 mm 0.00 in/hr0.0 mm/hr 0.00 in0.0 mm
11:05 AM 32.6°F0.3°C 27.9°F-2.3°C 87% 3.0 mph NE4.8 kmh NE 5.4 mph8.7 kmh 30.32 in1026.8 mb 0.00 in0.0 mm 0.00 in/hr0.0 mm/hr 0.00 in0.0 mm
11:00 AM 32.5°F0.3°C 27.8°F-2.3°C 87% 3.3 mph NNE5.3 kmh NNE 5.5 mph8.9 kmh 30.33 in1027.1 mb 0.00 in0.0 mm 0.00 in/hr0.0 mm/hr 0.00 in0.0 mm
10:55 AM 32.5°F0.3°C 28.2°F-2.1°C 88% 4.4 mph NNE7.1 kmh NNE 7.2 mph11.6 kmh 30.33 in1027.1 mb 0.00 in0.0 mm 0.00 in/hr0.0 mm/hr 0.00 in0.0 mm
10:50 AM 32.3°F0.2°C 28.0°F-2.2°C 88% 2.5 mph NE4.0 kmh NE 4.9 mph7.9 kmh 30.33 in1027.1 mb 0.00 in0.0 mm 0.00 in/hr0.0 mm/hr 0.00 in0.0 mm
10:45 AM 32.1°F0.1°C 27.7°F-2.4°C 88% 2.9 mph NE4.7 kmh NE 4.9 mph7.9 kmh 30.33 in1027.1 mb 0.00 in0.0 mm 0.00 in/hr0.0 mm/hr 0.00 in0.0 mm
10:40 AM 31.8°F-0.1°C 27.5°F-2.5°C 88% 2.3 mph ENE3.7 kmh ENE 4.9 mph7.9 kmh 30.33 in1027.1 mb 0.00 in0.0 mm 0.00 in/hr0.0 mm/hr 0.00 in0.0 mm
10:35 AM 31.7°F-0.2°C 27.4°F-2.6°C 88% 3.5 mph NE5.6 kmh NE 6.7 mph10.8 kmh 30.33 in1027.1 mb 0.00 in0.0 mm 0.00 in/hr0.0 mm/hr 0.00 in0.0 mm
10:30 AM 31.7°F-0.2°C 27.7°F-2.4°C 89% 2.6 mph NE4.2 kmh NE 6.5 mph10.5 kmh 30.33 in1027.1 mb 0.00 in0.0 mm 0.00 in/hr0.0 mm/hr 0.00 in0.0 mm
10:25 AM 31.6°F-0.2°C 27.6°F-2.4°C 89% 2.0 mph NNE3.2 kmh NNE 5.4 mph8.7 kmh 30.33 in1027.1 mb 0.00 in0.0 mm 0.00 in/hr0.0 mm/hr 0.00 in0.0 mm
10:20 AM 31.3°F-0.4°C 27.3°F-2.6°C 89% 2.4 mph N3.9 kmh N 5.4 mph8.7 kmh 30.33 in1027.1 mb 0.00 in0.0 mm 0.00 in/hr0.0 mm/hr 0.00 in0.0 mm
10:15 AM 31.3°F-0.4°C 27.3°F-2.6°C 89% 3.3 mph NE5.3 kmh NE 5.7 mph9.2 kmh 30.33 in1027.1 mb 0.00 in0.0 mm 0.00 in/hr0.0 mm/hr 0.00 in0.0 mm
10:10 AM 31.1°F-0.5°C 27.5°F-2.5°C 90% 2.8 mph NE4.5 kmh NE 5.4 mph8.7 kmh 30.34 in1027.4 mb 0.00 in0.0 mm 0.00 in/hr0.0 mm/hr 0.00 in0.0 mm
10:05 AM 30.8°F-0.7°C 27.2°F-2.7°C 90% 2.1 mph NNE3.4 kmh NNE 4.4 mph7.1 kmh 30.34 in1027.4 mb 0.00 in0.0 mm 0.00 in/hr0.0 mm/hr 0.00 in0.0 mm
10:00 AM 30.7°F-0.7°C 27.1°F-2.7°C 90% 3.1 mph ENE5.0 kmh ENE 5.5 mph8.9 kmh 30.34 in1027.4 mb 0.00 in0.0 mm 0.00 in/hr0.0 mm/hr 0.00 in0.0 mm
09:55 AM 30.6°F-0.8°C 27.0°F-2.8°C 90% 2.8 mph NE4.5 kmh NE 4.9 mph7.9 kmh 30.34 in1027.4 mb 0.00 in0.0 mm 0.00 in/hr0.0 mm/hr 0.00 in0.0 mm
09:50 AM 30.7°F-0.7°C 27.5°F-2.5°C 91% 1.1 mph NE1.8 kmh NE 2.7 mph4.3 kmh 30.34 in1027.4 mb 0.00 in0.0 mm 0.00 in/hr0.0 mm/hr 0.00 in0.0 mm
09:45 AM 30.6°F-0.8°C 27.4°F-2.6°C 91% 2.5 mph NE4.0 kmh NE 4.2 mph6.8 kmh 30.34 in1027.4 mb 0.00 in0.0 mm 0.00 in/hr0.0 mm/hr 0.00 in0.0 mm
09:40 AM 30.3°F-0.9°C 27.0°F-2.8°C 91% 1.0 mph N1.6 kmh N 2.7 mph4.3 kmh 30.34 in1027.4 mb 0.00 in0.0 mm 0.00 in/hr0.0 mm/hr 0.00 in0.0 mm
09:35 AM 30.1°F-1.1°C 26.8°F-2.9°C 91% 0.7 mph NE1.1 kmh NE 3.7 mph6.0 kmh 30.34 in1027.4 mb 0.00 in0.0 mm 0.00 in/hr0.0 mm/hr 0.00 in0.0 mm
09:30 AM 30.0°F-1.1°C 26.8°F-2.9°C 91% 1.6 mph NE2.6 kmh NE 4.0 mph6.4 kmh 30.34 in1027.4 mb 0.00 in0.0 mm 0.00 in/hr0.0 mm/hr 0.00 in0.0 mm
09:25 AM 29.8°F-1.2°C 26.9°F-2.8°C 92% 2.4 mph NNE3.9 kmh NNE 4.2 mph6.8 kmh 30.34 in1027.4 mb 0.00 in0.0 mm 0.00 in/hr0.0 mm/hr 0.00 in0.0 mm
09:20 AM 29.5°F-1.4°C 26.6°F-3.0°C 92% 2.0 mph NNE3.2 kmh NNE 3.5 mph5.6 kmh 30.34 in1027.4 mb 0.00 in0.0 mm 0.00 in/hr0.0 mm/hr 0.00 in0.0 mm
09:15 AM 29.3°F-1.5°C 26.4°F-3.1°C 92% 2.3 mph NNE3.7 kmh NNE 4.4 mph7.1 kmh 30.34 in1027.4 mb 0.00 in0.0 mm 0.00 in/hr0.0 mm/hr 0.00 in0.0 mm
09:10 AM 29.1°F-1.6°C 26.2°F-3.2°C 92% 2.0 mph NNE3.2 kmh NNE 3.7 mph6.0 kmh 30.34 in1027.4 mb 0.00 in0.0 mm 0.00 in/hr0.0 mm/hr 0.00 in0.0 mm
09:05 AM 29.0°F-1.7°C 26.5°F-3.1°C 93% 2.2 mph N3.5 kmh N 4.0 mph6.4 kmh 30.34 in1027.4 mb 0.00 in0.0 mm 0.00 in/hr0.0 mm/hr 0.00 in0.0 mm
09:00 AM 28.8°F-1.8°C 26.3°F-3.2°C 93% 1.5 mph NNW2.4 kmh NNW 2.7 mph4.3 kmh 30.33 in1027.1 mb 0.00 in0.0 mm 0.00 in/hr0.0 mm/hr 0.00 in0.0 mm
08:55 AM 28.8°F-1.8°C 26.3°F-3.2°C 93% 1.2 mph ENE1.9 kmh ENE 3.2 mph5.1 kmh 30.33 in1027.1 mb 0.00 in0.0 mm 0.00 in/hr0.0 mm/hr 0.00 in0.0 mm
08:50 AM 28.8°F-1.8°C 26.3°F-3.2°C 93% 2.5 mph N4.0 kmh N 4.4 mph7.1 kmh 30.33 in1027.1 mb 0.00 in0.0 mm 0.00 in/hr0.0 mm/hr 0.00 in0.0 mm
08:45 AM 28.7°F-1.8°C 26.2°F-3.2°C 93% 3.2 mph NNE5.1 kmh NNE 6.0 mph9.7 kmh 30.33 in1027.1 mb 0.00 in0.0 mm 0.00 in/hr0.0 mm/hr 0.00 in0.0 mm
08:40 AM 28.5°F-1.9°C 26.0°F-3.3°C 93% 3.0 mph NNE4.8 kmh NNE 4.7 mph7.6 kmh 30.33 in1027.1 mb 0.00 in0.0 mm 0.00 in/hr0.0 mm/hr 0.00 in0.0 mm
08:35 AM 28.4°F-2.0°C 25.9°F-3.4°C 93% 2.8 mph N4.5 kmh N 5.4 mph8.7 kmh 30.33 in1027.1 mb 0.00 in0.0 mm 0.00 in/hr0.0 mm/hr 0.00 in0.0 mm
08:30 AM 28.3°F-2.1°C 26.1°F-3.3°C 94% 3.2 mph N5.1 kmh N 4.9 mph7.9 kmh 30.32 in1026.8 mb 0.00 in0.0 mm 0.00 in/hr0.0 mm/hr 0.00 in0.0 mm
08:25 AM 28.3°F-2.1°C 26.1°F-3.3°C 94% 2.7 mph NNE4.3 kmh NNE 5.4 mph8.7 kmh 30.32 in1026.8 mb 0.00 in0.0 mm 0.00 in/hr0.0 mm/hr 0.00 in0.0 mm
08:20 AM 28.3°F-2.1°C 26.1°F-3.3°C 94% 3.9 mph NNE6.3 kmh NNE 7.0 mph11.3 kmh 30.33 in1027.1 mb 0.00 in0.0 mm 0.00 in/hr0.0 mm/hr 0.00 in0.0 mm
08:15 AM 28.2°F-2.1°C 26.0°F-3.3°C 94% 2.3 mph ENE3.7 kmh ENE 5.0 mph8.0 kmh 30.33 in1027.1 mb 0.00 in0.0 mm 0.00 in/hr0.0 mm/hr 0.00 in0.0 mm
08:10 AM 28.1°F-2.2°C 25.9°F-3.4°C 94% 1.7 mph NNW2.7 kmh NNW 3.0 mph4.8 kmh 30.33 in1027.1 mb 0.00 in0.0 mm 0.00 in/hr0.0 mm/hr 0.00 in0.0 mm
08:05 AM 28.1°F-2.2°C 25.9°F-3.4°C 94% 2.4 mph NNE3.9 kmh NNE 4.2 mph6.8 kmh 30.33 in1027.1 mb 0.00 in0.0 mm 0.00 in/hr0.0 mm/hr 0.00 in0.0 mm
08:00 AM 28.1°F-2.2°C 25.9°F-3.4°C 94% 0.6 mph ESE1.0 kmh ESE 3.7 mph6.0 kmh 30.33 in1027.1 mb 0.00 in0.0 mm 0.00 in/hr0.0 mm/hr 0.00 in0.0 mm
07:55 AM 28.0°F-2.2°C 25.8°F-3.4°C 94% 1.4 mph ESE2.3 kmh ESE 3.5 mph5.6 kmh 30.32 in1026.8 mb 0.00 in0.0 mm 0.00 in/hr0.0 mm/hr 0.00 in0.0 mm
07:50 AM 27.9°F-2.3°C 25.8°F-3.4°C 94% 0.7 mph NE1.1 kmh NE 3.5 mph5.6 kmh 30.32 in1026.8 mb 0.00 in0.0 mm 0.00 in/hr0.0 mm/hr 0.00 in0.0 mm
07:45 AM 27.8°F-2.3°C 25.6°F-3.6°C 94% 0.2 mph E0.3 kmh E 1.6 mph2.6 kmh 30.32 in1026.8 mb 0.00 in0.0 mm 0.00 in/hr0.0 mm/hr 0.00 in0.0 mm
07:40 AM 27.8°F-2.3°C 25.6°F-3.6°C 94% 3.0 mph NE4.8 kmh NE 4.9 mph7.9 kmh 30.32 in1026.8 mb 0.00 in0.0 mm 0.00 in/hr0.0 mm/hr 0.00 in0.0 mm
07:35 AM 27.7°F-2.4°C 25.5°F-3.6°C 94% 1.3 mph NE2.1 kmh NE 3.5 mph5.6 kmh 30.32 in1026.8 mb 0.00 in0.0 mm 0.00 in/hr0.0 mm/hr 0.00 in0.0 mm
07:30 AM 27.6°F-2.4°C 25.4°F-3.7°C 94% 2.1 mph NNE3.4 kmh NNE 4.0 mph6.4 kmh 30.32 in1026.8 mb 0.00 in0.0 mm 0.00 in/hr0.0 mm/hr 0.00 in0.0 mm
07:25 AM 27.5°F-2.5°C 25.3°F-3.7°C 94% 3.6 mph NNE5.8 kmh NNE 6.7 mph10.8 kmh 30.31 in1026.4 mb 0.00 in0.0 mm 0.00 in/hr0.0 mm/hr 0.00 in0.0 mm
07:20 AM 27.5°F-2.5°C 25.3°F-3.7°C 94% 3.0 mph NNE4.8 kmh NNE 6.2 mph10.0 kmh 30.32 in1026.8 mb 0.00 in0.0 mm 0.00 in/hr0.0 mm/hr 0.00 in0.0 mm
07:15 AM 27.5°F-2.5°C 25.3°F-3.7°C 94% 0.2 mph NNE0.3 kmh NNE 3.2 mph5.1 kmh 30.32 in1026.8 mb 0.00 in0.0 mm 0.00 in/hr0.0 mm/hr 0.00 in0.0 mm
07:10 AM 27.5°F-2.5°C 25.3°F-3.7°C 94% 3.3 mph NNE5.3 kmh NNE 5.5 mph8.9 kmh 30.32 in1026.8 mb 0.00 in0.0 mm 0.00 in/hr0.0 mm/hr 0.00 in0.0 mm
07:05 AM 27.5°F-2.5°C 25.4°F-3.7°C 94% 3.9 mph NNE6.3 kmh NNE 6.2 mph10.0 kmh 30.32 in1026.8 mb 0.00 in0.0 mm 0.00 in/hr0.0 mm/hr 0.00 in0.0 mm
07:00 AM 27.5°F-2.5°C 25.4°F-3.7°C 94% 2.9 mph N4.7 kmh N 4.2 mph6.8 kmh 30.32 in1026.8 mb 0.00 in0.0 mm 0.00 in/hr0.0 mm/hr 0.00 in0.0 mm
06:55 AM 27.4°F-2.6°C 25.2°F-3.8°C 94% 2.9 mph N4.7 kmh N 4.0 mph6.4 kmh 30.32 in1026.8 mb 0.00 in0.0 mm 0.00 in/hr0.0 mm/hr 0.00 in0.0 mm
06:50 AM 27.4°F-2.6°C 25.2°F-3.8°C 94% 2.2 mph NNE3.5 kmh NNE 3.7 mph6.0 kmh 30.32 in1026.8 mb 0.00 in0.0 mm 0.00 in/hr0.0 mm/hr 0.00 in0.0 mm
06:45 AM 27.5°F-2.5°C 25.3°F-3.7°C 94% 2.5 mph N4.0 kmh N 4.2 mph6.8 kmh 30.32 in1026.8 mb 0.00 in0.0 mm 0.00 in/hr0.0 mm/hr 0.00 in0.0 mm
06:40 AM 27.5°F-2.5°C 25.3°F-3.7°C 94% 2.2 mph NNE3.5 kmh NNE 4.4 mph7.1 kmh 30.32 in1026.8 mb 0.00 in0.0 mm 0.00 in/hr0.0 mm/hr 0.00 in0.0 mm
06:35 AM 27.6°F-2.4°C 25.4°F-3.7°C 94% 2.3 mph NNW3.7 kmh NNW 3.5 mph5.6 kmh 30.32 in1026.8 mb 0.00 in0.0 mm 0.00 in/hr0.0 mm/hr 0.00 in0.0 mm
06:30 AM 27.6°F-2.4°C 25.4°F-3.7°C 94% 1.8 mph NNE2.9 kmh NNE 3.0 mph4.8 kmh 30.31 in1026.4 mb 0.00 in0.0 mm 0.00 in/hr0.0 mm/hr 0.00 in0.0 mm
06:25 AM 27.6°F-2.4°C 25.4°F-3.7°C 94% 2.9 mph NNE4.7 kmh NNE 5.7 mph9.2 kmh 30.31 in1026.4 mb 0.00 in0.0 mm 0.00 in/hr0.0 mm/hr 0.00 in0.0 mm
06:20 AM 27.5°F-2.5°C 25.3°F-3.7°C 94% 2.7 mph N4.3 kmh N 5.7 mph9.2 kmh 30.31 in1026.4 mb 0.00 in0.0 mm 0.00 in/hr0.0 mm/hr 0.00 in0.0 mm
06:15 AM 27.5°F-2.5°C 25.3°F-3.7°C 94% 2.8 mph NE4.5 kmh NE 5.0 mph8.0 kmh 30.31 in1026.4 mb 0.00 in0.0 mm 0.00 in/hr0.0 mm/hr 0.00 in0.0 mm
06:10 AM 27.3°F-2.6°C 25.2°F-3.8°C 94% 2.9 mph NE4.7 kmh NE 6.5 mph10.5 kmh 30.30 in1026.1 mb 0.00 in0.0 mm 0.00 in/hr0.0 mm/hr 0.00 in0.0 mm
06:05 AM 27.3°F-2.6°C 25.1°F-3.8°C 94% 2.7 mph NNE4.3 kmh NNE 5.0 mph8.0 kmh 30.30 in1026.1 mb 0.00 in0.0 mm 0.00 in/hr0.0 mm/hr 0.00 in0.0 mm
06:00 AM 27.4°F-2.6°C 25.3°F-3.7°C 94% 2.7 mph NE4.3 kmh NE 5.5 mph8.9 kmh 30.31 in1026.4 mb 0.00 in0.0 mm 0.00 in/hr0.0 mm/hr 0.00 in0.0 mm
05:55 AM 27.3°F-2.6°C 25.2°F-3.8°C 94% 1.3 mph SE2.1 kmh SE 3.2 mph5.1 kmh 30.31 in1026.4 mb 0.00 in0.0 mm 0.00 in/hr0.0 mm/hr 0.00 in0.0 mm
05:50 AM 27.3°F-2.6°C 25.1°F-3.8°C 94% 2.5 mph NE4.0 kmh NE 4.9 mph7.9 kmh 30.30 in1026.1 mb 0.00 in0.0 mm 0.00 in/hr0.0 mm/hr 0.00 in0.0 mm
05:45 AM 27.3°F-2.6°C 25.1°F-3.8°C 94% 2.9 mph N4.7 kmh N 6.0 mph9.7 kmh 30.30 in1026.1 mb 0.00 in0.0 mm 0.00 in/hr0.0 mm/hr 0.00 in0.0 mm
05:40 AM 27.3°F-2.6°C 25.1°F-3.8°C 94% 1.5 mph N2.4 kmh N 4.2 mph6.8 kmh 30.30 in1026.1 mb 0.00 in0.0 mm 0.00 in/hr0.0 mm/hr 0.00 in0.0 mm
05:35 AM 27.3°F-2.6°C 25.1°F-3.8°C 94% 2.6 mph NE4.2 kmh NE 4.9 mph7.9 kmh 30.30 in1026.1 mb 0.00 in0.0 mm 0.00 in/hr0.0 mm/hr 0.00 in0.0 mm
05:30 AM 27.3°F-2.6°C 25.1°F-3.8°C 94% 2.8 mph NE4.5 kmh NE 5.5 mph8.9 kmh 30.30 in1026.1 mb 0.00 in0.0 mm 0.00 in/hr0.0 mm/hr 0.00 in0.0 mm
05:25 AM 27.3°F-2.6°C 25.1°F-3.8°C 94% 2.4 mph NE3.9 kmh NE 5.4 mph8.7 kmh 30.30 in1026.1 mb 0.00 in0.0 mm 0.00 in/hr0.0 mm/hr 0.00 in0.0 mm
05:20 AM 27.3°F-2.6°C 25.1°F-3.8°C 94% 2.6 mph NNE4.2 kmh NNE 4.7 mph7.6 kmh 30.30 in1026.1 mb 0.00 in0.0 mm 0.00 in/hr0.0 mm/hr 0.00 in0.0 mm
05:15 AM 27.2°F-2.7°C 25.0°F-3.9°C 94% 2.5 mph NE4.0 kmh NE 5.7 mph9.2 kmh 30.30 in1026.1 mb 0.00 in0.0 mm 0.00 in/hr0.0 mm/hr 0.00 in0.0 mm
05:10 AM 27.1°F-2.7°C 24.9°F-3.9°C 94% 2.5 mph N4.0 kmh N 5.7 mph9.2 kmh 30.30 in1026.1 mb 0.00 in0.0 mm 0.00 in/hr0.0 mm/hr 0.00 in0.0 mm
05:05 AM 27.2°F-2.7°C 25.0°F-3.9°C 94% 2.9 mph NNE4.7 kmh NNE 6.0 mph9.7 kmh 30.30 in1026.1 mb 0.00 in0.0 mm 0.00 in/hr0.0 mm/hr 0.00 in0.0 mm
05:00 AM 27.2°F-2.7°C 25.0°F-3.9°C 94% 3.8 mph NNE6.1 kmh NNE 6.7 mph10.8 kmh 30.30 in1026.1 mb 0.00 in0.0 mm 0.00 in/hr0.0 mm/hr 0.00 in0.0 mm
04:55 AM 27.1°F-2.7°C 24.9°F-3.9°C 94% 3.3 mph NE5.3 kmh NE 5.4 mph8.7 kmh 30.31 in1026.4 mb 0.00 in0.0 mm 0.00 in/hr0.0 mm/hr 0.00 in0.0 mm
04:50 AM 27.1°F-2.7°C 24.9°F-3.9°C 94% 2.9 mph NNE4.7 kmh NNE 5.5 mph8.9 kmh 30.30 in1026.1 mb 0.00 in0.0 mm 0.00 in/hr0.0 mm/hr 0.00 in0.0 mm
04:45 AM 27.1°F-2.7°C 24.9°F-3.9°C 94% 3.1 mph N5.0 kmh N 6.0 mph9.7 kmh 30.30 in1026.1 mb 0.00 in0.0 mm 0.00 in/hr0.0 mm/hr 0.00 in0.0 mm
04:40 AM 27.1°F-2.7°C 24.9°F-3.9°C 94% 4.0 mph NE6.4 kmh NE 6.2 mph10.0 kmh 30.30 in1026.1 mb 0.00 in0.0 mm 0.00 in/hr0.0 mm/hr 0.00 in0.0 mm
04:35 AM 27.0°F-2.8°C 24.8°F-4.0°C 94% 3.7 mph NNE6.0 kmh NNE 5.7 mph9.2 kmh 30.31 in1026.4 mb 0.00 in0.0 mm 0.00 in/hr0.0 mm/hr 0.00 in0.0 mm
04:30 AM 27.0°F-2.8°C 24.8°F-4.0°C 94% 3.0 mph NNE4.8 kmh NNE 5.0 mph8.0 kmh 30.31 in1026.4 mb 0.00 in0.0 mm 0.00 in/hr0.0 mm/hr 0.00 in0.0 mm
04:25 AM 27.0°F-2.8°C 24.8°F-4.0°C 94% 3.2 mph N5.1 kmh N 4.9 mph7.9 kmh 30.30 in1026.1 mb 0.00 in0.0 mm 0.00 in/hr0.0 mm/hr 0.00 in0.0 mm
04:20 AM 27.0°F-2.8°C 24.8°F-4.0°C 94% 3.3 mph NNE5.3 kmh NNE 5.7 mph9.2 kmh 30.30 in1026.1 mb 0.00 in0.0 mm 0.00 in/hr0.0 mm/hr 0.00 in0.0 mm
04:15 AM 27.0°F-2.8°C 24.8°F-4.0°C 94% 2.5 mph N4.0 kmh N 4.7 mph7.6 kmh 30.30 in1026.1 mb 0.00 in0.0 mm 0.00 in/hr0.0 mm/hr 0.00 in0.0 mm
04:10 AM 27.0°F-2.8°C 24.8°F-4.0°C 94% 2.6 mph N4.2 kmh N 4.4 mph7.1 kmh 30.31 in1026.4 mb 0.00 in0.0 mm 0.00 in/hr0.0 mm/hr 0.00 in0.0 mm
04:05 AM 27.0°F-2.8°C 24.8°F-4.0°C 94% 2.5 mph N4.0 kmh N 4.9 mph7.9 kmh 30.31 in1026.4 mb 0.00 in0.0 mm 0.00 in/hr0.0 mm/hr 0.00 in0.0 mm
04:00 AM 27.0°F-2.8°C 24.8°F-4.0°C 94% 2.9 mph NE4.7 kmh NE 5.0 mph8.0 kmh 30.31 in1026.4 mb 0.00 in0.0 mm 0.00 in/hr0.0 mm/hr 0.00 in0.0 mm
03:55 AM 26.9°F-2.8°C 24.8°F-4.0°C 94% 2.3 mph NNE3.7 kmh NNE 4.2 mph6.8 kmh 30.30 in1026.1 mb 0.00 in0.0 mm 0.00 in/hr0.0 mm/hr 0.00 in0.0 mm
03:50 AM 26.8°F-2.9°C 24.6°F-4.1°C 94% 3.3 mph N5.3 kmh N 6.0 mph9.7 kmh 30.30 in1026.1 mb 0.00 in0.0 mm 0.00 in/hr0.0 mm/hr 0.00 in0.0 mm
03:45 AM 26.9°F-2.8°C 24.7°F-4.1°C 94% 2.5 mph NNE4.0 kmh NNE 4.7 mph7.6 kmh 30.30 in1026.1 mb 0.00 in0.0 mm 0.00 in/hr0.0 mm/hr 0.00 in0.0 mm
03:40 AM 27.0°F-2.8°C 24.8°F-4.0°C 94% 2.5 mph NNE4.0 kmh NNE 4.9 mph7.9 kmh 30.30 in1026.1 mb 0.00 in0.0 mm 0.00 in/hr0.0 mm/hr 0.00 in0.0 mm
03:35 AM 27.0°F-2.8°C 24.8°F-4.0°C 94% 2.2 mph N3.5 kmh N 3.7 mph6.0 kmh 30.30 in1026.1 mb 0.00 in0.0 mm 0.00 in/hr0.0 mm/hr 0.00 in0.0 mm
03:30 AM 27.0°F-2.8°C 24.8°F-4.0°C 94% 3.0 mph NNE4.8 kmh NNE 5.7 mph9.2 kmh 30.30 in1026.1 mb 0.00 in0.0 mm 0.00 in/hr0.0 mm/hr 0.00 in0.0 mm
03:25 AM 27.0°F-2.8°C 24.5°F-4.2°C 93% 2.5 mph N4.0 kmh N 4.7 mph7.6 kmh 30.30 in1026.1 mb 0.00 in0.0 mm 0.00 in/hr0.0 mm/hr 0.00 in0.0 mm
03:20 AM 27.0°F-2.8°C 24.5°F-4.2°C 93% 3.3 mph N5.3 kmh N 6.0 mph9.7 kmh 30.30 in1026.1 mb 0.00 in0.0 mm 0.00 in/hr0.0 mm/hr 0.00 in0.0 mm
03:15 AM 27.0°F-2.8°C 24.5°F-4.2°C 93% 2.6 mph NNE4.2 kmh NNE 4.9 mph7.9 kmh 30.30 in1026.1 mb 0.00 in0.0 mm 0.00 in/hr0.0 mm/hr 0.00 in0.0 mm
03:10 AM 27.0°F-2.8°C 24.5°F-4.2°C 93% 3.5 mph NE5.6 kmh NE 6.2 mph10.0 kmh 30.30 in1026.1 mb 0.00 in0.0 mm 0.00 in/hr0.0 mm/hr 0.00 in0.0 mm
03:05 AM 27.1°F-2.7°C 24.2°F-4.3°C 92% 2.9 mph NNE4.7 kmh NNE 4.7 mph7.6 kmh 30.30 in1026.1 mb 0.00 in0.0 mm 0.00 in/hr0.0 mm/hr 0.00 in0.0 mm
03:00 AM 27.2°F-2.7°C 24.3°F-4.3°C 92% 3.2 mph NNE5.1 kmh NNE 5.4 mph8.7 kmh 30.30 in1026.1 mb 0.00 in0.0 mm 0.00 in/hr0.0 mm/hr 0.00 in0.0 mm
02:55 AM 27.2°F-2.7°C 24.3°F-4.3°C 92% 3.3 mph NNE5.3 kmh NNE 5.4 mph8.7 kmh 30.30 in1026.1 mb 0.00 in0.0 mm 0.00 in/hr0.0 mm/hr 0.00 in0.0 mm
02:50 AM 27.2°F-2.7°C 24.3°F-4.3°C 92% 3.0 mph NNE4.8 kmh NNE 6.2 mph10.0 kmh 30.31 in1026.4 mb 0.00 in0.0 mm 0.00 in/hr0.0 mm/hr 0.00 in0.0 mm
02:45 AM 27.1°F-2.7°C 24.2°F-4.3°C 92% 2.7 mph NNE4.3 kmh NNE 5.0 mph8.0 kmh 30.31 in1026.4 mb 0.00 in0.0 mm 0.00 in/hr0.0 mm/hr 0.00 in0.0 mm
02:40 AM 27.1°F-2.7°C 24.2°F-4.3°C 92% 2.7 mph NNE4.3 kmh NNE 4.2 mph6.8 kmh 30.31 in1026.4 mb 0.00 in0.0 mm 0.00 in/hr0.0 mm/hr 0.00 in0.0 mm
02:35 AM 27.1°F-2.7°C 24.2°F-4.3°C 92% 1.8 mph NNW2.9 kmh NNW 3.0 mph4.8 kmh 30.31 in1026.4 mb 0.00 in0.0 mm 0.00 in/hr0.0 mm/hr 0.00 in0.0 mm
02:30 AM 27.1°F-2.7°C 24.2°F-4.3°C 92% 2.2 mph NNE3.5 kmh NNE 3.7 mph6.0 kmh 30.31 in1026.4 mb 0.00 in0.0 mm 0.00 in/hr0.0 mm/hr 0.00 in0.0 mm
02:25 AM 27.0°F-2.8°C 24.1°F-4.4°C 92% 1.5 mph NNE2.4 kmh NNE 4.4 mph7.1 kmh 30.31 in1026.4 mb 0.00 in0.0 mm 0.00 in/hr0.0 mm/hr 0.00 in0.0 mm
02:20 AM 27.1°F-2.7°C 24.2°F-4.3°C 92% 3.0 mph N4.8 kmh N 4.9 mph7.9 kmh 30.31 in1026.4 mb 0.00 in0.0 mm 0.00 in/hr0.0 mm/hr 0.00 in0.0 mm
02:15 AM 27.1°F-2.7°C 24.2°F-4.3°C 92% 2.8 mph NNE4.5 kmh NNE 6.2 mph10.0 kmh 30.31 in1026.4 mb 0.00 in0.0 mm 0.00 in/hr0.0 mm/hr 0.00 in0.0 mm
02:10 AM 27.1°F-2.7°C 24.2°F-4.3°C 92% 3.0 mph N4.8 kmh N 5.0 mph8.0 kmh 30.31 in1026.4 mb 0.00 in0.0 mm 0.00 in/hr0.0 mm/hr 0.00 in0.0 mm
02:05 AM 27.0°F-2.8°C 24.1°F-4.4°C 92% 3.0 mph NNE4.8 kmh NNE 5.4 mph8.7 kmh 30.31 in1026.4 mb 0.00 in0.0 mm 0.00 in/hr0.0 mm/hr 0.00 in0.0 mm
02:00 AM 26.9°F-2.8°C 24.0°F-4.4°C 92% 3.0 mph NNE4.8 kmh NNE 4.9 mph7.9 kmh 30.31 in1026.4 mb 0.00 in0.0 mm 0.00 in/hr0.0 mm/hr 0.00 in0.0 mm
01:55 AM 26.9°F-2.8°C 24.0°F-4.4°C 92% 2.5 mph NNE4.0 kmh NNE 4.9 mph7.9 kmh 30.30 in1026.1 mb 0.00 in0.0 mm 0.00 in/hr0.0 mm/hr 0.00 in0.0 mm
01:50 AM 27.0°F-2.8°C 24.1°F-4.4°C 92% 2.7 mph N4.3 kmh N 4.7 mph7.6 kmh 30.31 in1026.4 mb 0.00 in0.0 mm 0.00 in/hr0.0 mm/hr 0.00 in0.0 mm
01:45 AM 27.0°F-2.8°C 24.1°F-4.4°C 92% 2.4 mph NNE3.9 kmh NNE 4.9 mph7.9 kmh 30.30 in1026.1 mb 0.00 in0.0 mm 0.00 in/hr0.0 mm/hr 0.00 in0.0 mm
01:40 AM 27.0°F-2.8°C 24.1°F-4.4°C 92% 3.6 mph N5.8 kmh N 5.7 mph9.2 kmh 30.30 in1026.1 mb 0.00 in0.0 mm 0.00 in/hr0.0 mm/hr 0.00 in0.0 mm
01:35 AM 27.0°F-2.8°C 24.1°F-4.4°C 92% 3.2 mph N5.1 kmh N 5.7 mph9.2 kmh 30.30 in1026.1 mb 0.00 in0.0 mm 0.00 in/hr0.0 mm/hr 0.00 in0.0 mm
01:30 AM 27.1°F-2.7°C 24.2°F-4.3°C 92% 2.8 mph NNE4.5 kmh NNE 4.7 mph7.6 kmh 30.30 in1026.1 mb 0.00 in0.0 mm 0.00 in/hr0.0 mm/hr 0.00 in0.0 mm
01:25 AM 27.1°F-2.7°C 24.2°F-4.3°C 92% 3.1 mph NE5.0 kmh NE 6.5 mph10.5 kmh 30.30 in1026.1 mb 0.00 in0.0 mm 0.00 in/hr0.0 mm/hr 0.00 in0.0 mm
01:20 AM 27.1°F-2.7°C 24.2°F-4.3°C 92% 2.8 mph NNE4.5 kmh NNE 4.4 mph7.1 kmh 30.30 in1026.1 mb 0.00 in0.0 mm 0.00 in/hr0.0 mm/hr 0.00 in0.0 mm
01:15 AM 27.1°F-2.7°C 24.2°F-4.3°C 92% 2.9 mph NNE4.7 kmh NNE 6.2 mph10.0 kmh 30.30 in1026.1 mb 0.00 in0.0 mm 0.00 in/hr0.0 mm/hr 0.00 in0.0 mm
01:10 AM 27.1°F-2.7°C 24.2°F-4.3°C 92% 3.1 mph NNE5.0 kmh NNE 4.9 mph7.9 kmh 30.30 in1026.1 mb 0.00 in0.0 mm 0.00 in/hr0.0 mm/hr 0.00 in0.0 mm
01:05 AM 27.1°F-2.7°C 24.2°F-4.3°C 92% 3.0 mph N4.8 kmh N 5.4 mph8.7 kmh 30.30 in1026.1 mb 0.00 in0.0 mm 0.00 in/hr0.0 mm/hr 0.00 in0.0 mm
01:00 AM 27.1°F-2.7°C 24.2°F-4.3°C 92% 2.8 mph NNE4.5 kmh NNE 4.4 mph7.1 kmh 30.30 in1026.1 mb 0.00 in0.0 mm 0.00 in/hr0.0 mm/hr 0.00 in0.0 mm
12:55 AM 27.1°F-2.7°C 24.2°F-4.3°C 92% 3.4 mph N5.5 kmh N 7.2 mph11.6 kmh 30.30 in1026.1 mb 0.00 in0.0 mm 0.00 in/hr0.0 mm/hr 0.00 in0.0 mm
12:50 AM 27.1°F-2.7°C 23.9°F-4.5°C 91% 2.8 mph N4.5 kmh N 5.5 mph8.9 kmh 30.29 in1025.7 mb 0.00 in0.0 mm 0.00 in/hr0.0 mm/hr 0.00 in0.0 mm
12:45 AM 27.1°F-2.7°C 23.9°F-4.5°C 91% 4.2 mph N6.8 kmh N 6.7 mph10.8 kmh 30.29 in1025.7 mb 0.00 in0.0 mm 0.00 in/hr0.0 mm/hr 0.00 in0.0 mm
12:40 AM 27.1°F-2.7°C 23.9°F-4.5°C 91% 4.6 mph N7.4 kmh N 7.5 mph12.1 kmh 30.29 in1025.7 mb 0.00 in0.0 mm 0.00 in/hr0.0 mm/hr 0.00 in0.0 mm
12:35 AM 27.1°F-2.7°C 23.9°F-4.5°C 91% 4.1 mph N6.6 kmh N 6.2 mph10.0 kmh 30.29 in1025.7 mb 0.00 in0.0 mm 0.00 in/hr0.0 mm/hr 0.00 in0.0 mm
12:30 AM 27.1°F-2.7°C 23.9°F-4.5°C 91% 3.2 mph N5.1 kmh N 5.7 mph9.2 kmh 30.29 in1025.7 mb 0.00 in0.0 mm 0.00 in/hr0.0 mm/hr 0.00 in0.0 mm
12:25 AM 27.1°F-2.7°C 23.9°F-4.5°C 91% 4.1 mph NNE6.6 kmh NNE 8.1 mph13.0 kmh 30.29 in1025.7 mb 0.00 in0.0 mm 0.00 in/hr0.0 mm/hr 0.00 in0.0 mm
12:20 AM 27.1°F-2.7°C 23.8°F-4.6°C 91% 4.1 mph N6.6 kmh N 6.0 mph9.7 kmh 30.29 in1025.7 mb 0.00 in0.0 mm 0.00 in/hr0.0 mm/hr 0.00 in0.0 mm
12:15 AM 27.0°F-2.8°C 23.8°F-4.6°C 91% 3.6 mph N5.8 kmh N 6.0 mph9.7 kmh 30.30 in1026.1 mb 0.00 in0.0 mm 0.00 in/hr0.0 mm/hr 0.00 in0.0 mm
12:10 AM 27.0°F-2.8°C 23.8°F-4.6°C 91% 3.4 mph N5.5 kmh N 5.4 mph8.7 kmh 30.29 in1025.7 mb 0.00 in0.0 mm 0.00 in/hr0.0 mm/hr 0.00 in0.0 mm
12:05 AM 27.0°F-2.8°C 23.8°F-4.6°C 91% 3.5 mph N5.6 kmh N 7.2 mph11.6 kmh 30.29 in1025.7 mb 0.00 in0.0 mm 0.00 in/hr0.0 mm/hr 0.00 in0.0 mm
12:00 AM 27.0°F-2.8°C 23.8°F-4.6°C 91% 3.3 mph NE5.3 kmh NE 6.0 mph9.7 kmh 30.29 in1025.7 mb 0.00 in0.0 mm 0.00 in/hr0.0 mm/hr 0.00 in0.0 mm
WeatherForYou.com, LLC is not responsible for any damages or problems caused by this service. Current weather conditions are obtained from the closest station including government and personal stations which may have varying degrees of accuracy. Weather forecasts are derived from the NOAA NDFD and obtained through HAMweather's Aeris Weather API. Like all things, this site belongs to Jesus Christ... He just trusts me to maintain it. If you have any questions or comments email webmaster@weatherforyou.com

Copyright © 2014, WeatherForYou.com LLC. All rights reserved.